Time;durP1;ratioP1;P1;durP2;ratioP2;P2;SDS_P1;SDS_P2;PMS_P1;PMS_P2;Temp;Humidity;BMP_temperature;BMP_pressure;BME280_temperature;BME280_humidity;BME280_pressure;Samples;Min_cycle;Max_cycle;Signal;HPM_P1;HPM_P2
2023/09/11 00:03:33;;;;;;;;;;;;;;;-145.06;100.00;39957.59;10388340;28;20390;-68
2023/09/11 00:08:34;;;;;;;0.10;0.10;;;;;;;-145.06;100.00;39967.66;10376266;28;20011;-67
2023/09/11 00:13:35;;;;;;;0.10;0.10;;;;;;;-145.06;100.00;39953.53;10382392;28;20046;-70
2023/09/11 00:18:37;;;;;;;0.10;0.10;;;;;;;-145.06;100.00;39987.84;10384091;28;20107;-70
2023/09/11 00:23:37;;;;;;;0.10;0.10;;;;;;;-145.06;100.00;39969.69;10382991;28;20046;-70
2023/09/11 00:28:38;;;;;;;0.10;0.10;;;;;;;-145.06;100.00;39965.66;10379348;28;20104;-71
2023/09/11 00:33:38;;;;;;;0.10;0.10;;;;;;;-145.06;100.00;39997.94;10375353;28;20033;-69
2023/09/11 00:38:38;;;;;;;0.10;0.10;;;;;;;-145.06;100.00;39983.81;10380400;28;20030;-68
2023/09/11 00:43:39;;;;;;;0.10;0.10;;;;;;;-145.06;100.00;39981.78;10368384;28;20442;-70
2023/09/11 00:48:39;;;;;;;0.10;0.10;;;;;;;-145.06;100.00;39965.66;10382949;28;20397;-70
2023/09/11 00:53:40;;;;;;;0.10;0.10;;;;;;;-145.06;100.00;39997.94;10359620;28;20095;-68
2023/09/11 00:58:42;;;;;;;0.10;0.10;;;;;;;-145.06;100.00;39963.63;10383035;28;20026;-68
2023/09/11 01:03:42;;;;;;;0.10;0.10;;;;;;;-145.06;100.00;39961.63;10381813;28;20021;-69
2023/09/11 01:08:43;;;;;;;0.00;0.00;;;;;;;-145.06;100.00;40004.00;10382967;28;20496;-69
2023/09/11 01:13:43;;;;;;;0.10;0.10;;;;;;;-145.06;100.00;39985.84;10387253;28;20030;-69
2023/09/11 01:18:51;;;;;;;0.10;0.10;;;;;;;-145.06;100.00;39983.81;10398614;28;20014;-68
2023/09/11 01:24:07;;;;;;;0.10;0.10;;;;;;;-145.06;100.00;40008.03;10375346;28;20091;-68
2023/09/11 01:29:13;;;;;;;0.10;0.10;;;;;;;-145.06;100.00;40050.41;10397568;28;20029;-69
2023/09/11 01:34:13;;;;;;;0.10;0.10;;;;;;;-145.06;100.00;40012.06;10391074;28;20030;-69
2023/09/11 01:39:14;;;;;;;0.10;0.10;;;;;;;-145.06;100.00;39959.59;10392278;28;20030;-68
2023/09/11 01:44:18;;;;;;;0.10;0.10;;;;;;;-145.06;100.00;40014.09;10393990;28;20095;-68
2023/09/11 01:49:20;;;;;;;0.10;0.10;;;;;;;-145.06;100.00;40074.63;10399097;28;20021;-70
2023/09/11 01:54:22;;;;;;;0.10;0.10;;;;;;;-145.06;100.00;40040.31;10380914;28;20088;-68
2023/09/11 01:59:23;;;;;;;0.10;0.10;;;;;;;-145.06;100.00;40044.34;10387471;28;20075;-68
2023/09/11 02:04:24;;;;;;;0.10;0.10;;;;;;;-145.06;100.00;40032.25;10394296;28;20104;-68
2023/09/11 02:09:24;;;;;;;0.10;0.10;;;;;;;-145.06;100.00;40036.28;10400446;28;20100;-68
2023/09/11 02:14:25;;;;;;;0.10;0.10;;;;;;;-145.06;100.00;40014.09;10386398;28;20040;-68
2023/09/11 02:19:25;;;;;;;0.10;0.10;;;;;;;-145.06;100.00;40016.09;10396269;28;20014;-68
2023/09/11 02:24:26;;;;;;;0.10;0.10;;;;;;;-145.06;100.00;40040.31;10401838;28;20121;-68
2023/09/11 02:29:26;;;;;;;0.10;0.10;;;;;;;-145.06;100.00;40018.13;10385394;28;20026;-68
2023/09/11 02:34:26;;;;;;;0.10;0.10;;;;;;;-145.06;100.00;40014.09;10372211;28;20379;-67
2023/09/11 02:39:28;;;;;;;0.10;0.10;;;;;;;-145.06;100.00;40014.09;10387742;28;20491;-71
2023/09/11 02:44:28;;;;;;;0.10;0.10;;;;;;;-145.06;100.00;40012.06;10368513;28;20017;-68
2023/09/11 02:49:28;;;;;;;0.10;0.10;;;;;;;-145.06;100.00;40012.06;10383062;28;20014;-68
2023/09/11 02:54:29;;;;;;;0.10;0.10;;;;;;;-145.06;100.00;40018.13;10374813;28;20022;-68
2023/09/11 02:59:29;;;;;;;0.10;0.10;;;;;;;-145.06;100.00;39995.91;10368683;28;20053;-68
2023/09/11 03:04:29;;;;;;;0.10;0.10;;;;;;;-145.06;100.00;40022.16;10371973;28;20022;-68
2023/09/11 03:09:30;;;;;;;0.10;0.10;;;;;;;-145.06;100.00;40004.00;10387203;28;20021;-68
2023/09/11 03:14:30;;;;;;;0.10;0.10;;;;;;;-145.06;100.00;40030.22;10377622;28;20041;-68
2023/09/11 03:19:33;;;;;;;0.10;0.10;;;;;;;-145.06;100.00;40038.31;10379064;28;20022;-68
2023/09/11 03:24:34;;;;;;;0.10;0.10;;;;;;;-145.06;100.00;40076.66;10350191;28;20026;-68
2023/09/11 03:29:34;;;;;;;0.10;0.10;;;;;;;-145.06;100.00;40078.66;10375999;28;20080;-69
2023/09/11 03:34:34;;;;;;;0.10;0.10;;;;;;;-145.06;100.00;40062.53;10373538;28;20479;-68
2023/09/11 03:39:34;;;;;;;0.00;0.00;;;;;;;-145.06;100.00;40080.69;10382080;28;20029;-68
2023/09/11 03:44:35;;;;;;;0.00;0.00;;;;;;;-145.06;100.00;40094.81;10373346;28;20022;-70
2023/09/11 03:49:35;;;;;;;0.08;0.08;;;;;;;-145.06;100.00;40072.59;10365855;28;20110;-68
2023/09/11 03:54:35;;;;;;;0.10;0.10;;;;;;;-145.06;100.00;40068.56;10373040;28;20068;-69
2023/09/11 03:59:35;;;;;;;0.10;0.10;;;;;;;-145.06;100.00;40036.28;10369435;28;20018;-68
2023/09/11 04:04:36;;;;;;;0.10;0.10;;;;;;;-145.06;100.00;40066.56;10342439;28;20021;-68
2023/09/11 04:09:36;;;;;;;0.03;0.03;;;;;;;-145.06;100.00;40048.38;10368976;28;20044;-68
2023/09/11 04:14:38;;;;;;;0.00;0.00;;;;;;;-145.06;100.00;40068.56;10379896;28;20034;-68
2023/09/11 04:19:39;;;;;;;0.10;0.10;;;;;;;-145.06;100.00;40060.50;10392686;28;20022;-69
2023/09/11 04:24:39;;;;;;;0.10;0.10;;;;;;;-145.06;100.00;40022.16;10384216;28;20034;-68
2023/09/11 04:29:40;;;;;;;0.10;0.10;;;;;;;-145.06;100.00;40042.34;10390429;28;20173;-68
2023/09/11 04:34:40;;;;;;;0.10;0.10;;;;;;;-145.06;100.00;40040.31;10387442;28;20179;-68
2023/09/11 04:39:40;;;;;;;0.10;0.10;;;;;;;-145.06;100.00;40084.72;10381470;28;20029;-68
2023/09/11 04:44:40;;;;;;;0.00;0.00;;;;;;;-145.06;100.00;40084.72;10364689;28;20014;-68
2023/09/11 04:49:41;;;;;;;0.10;0.10;;;;;;;-145.06;100.00;40068.56;10389956;28;20033;-68
2023/09/11 04:54:41;;;;;;;0.10;0.10;;;;;;;-145.06;100.00;40080.69;10376461;28;20076;-67
2023/09/11 04:59:42;;;;;;;0.00;0.00;;;;;;;-145.06;100.00;40076.66;10356233;28;20473;-68
2023/09/11 05:04:42;;;;;;;0.10;0.10;;;;;;;-145.06;100.00;40072.59;10384913;28;20025;-68
2023/09/11 05:09:42;;;;;;;0.10;0.10;;;;;;;-145.06;100.00;40056.47;10376014;28;20434;-68
2023/09/11 05:14:43;;;;;;;0.10;0.10;;;;;;;-145.06;100.00;39927.31;10375856;28;20398;-69
2023/09/11 05:19:43;;;;;;;0.10;0.10;;;;;;;-145.06;100.00;39888.97;10386779;28;20072;-69
2023/09/11 05:24:43;;;;;;;0.10;0.10;;;;;;;-145.06;100.00;39838.53;10378698;28;20101;-69
2023/09/11 05:29:43;;;;;;;0.10;0.10;;;;;;;-145.06;100.00;39828.44;10385135;28;20514;-69
2023/09/11 05:34:44;;;;;;;0.10;0.10;;;;;;;-145.06;100.00;39820.34;10379822;28;20457;-68
2023/09/11 05:39:45;;;;;;;0.10;0.10;;;;;;;-145.06;100.00;39769.91;10383935;28;20356;-69
2023/09/11 05:44:45;;;;;;;0.10;0.10;;;;;;;-145.06;100.00;39689.19;10386495;28;20101;-68
2023/09/11 05:49:46;;;;;;;0.10;0.10;;;;;;;-145.06;100.00;39604.44;10391970;28;20109;-68
2023/09/11 05:54:46;;;;;;;0.00;0.00;;;;;;;-145.06;100.00;39535.84;10380813;28;20074;-68
2023/09/11 05:59:46;;;;;;;0.10;0.10;;;;;;;-145.06;100.00;39390.56;10401066;28;20025;-68
2023/09/11 06:04:46;;;;;;;0.00;0.00;;;;;;;-145.06;100.00;39366.34;10399047;28;20025;-68
2023/09/11 06:09:47;;;;;;;0.10;0.10;;;;;;;-145.06;100.00;39301.78;10387565;28;20390;-69
2023/09/11 06:14:47;;;;;;;0.00;0.00;;;;;;;-145.06;100.00;39265.47;10390731;28;20492;-68
2023/09/11 06:19:47;;;;;;;0.10;0.10;;;;;;;-145.06;100.00;39215.03;10377649;28;20359;-69
2023/09/11 06:24:48;;;;;;;0.00;0.00;;;;;;;-145.06;100.00;39122.22;10371985;28;20166;-68
2023/09/11 06:29:48;;;;;;;0.10;0.10;;;;;;;-145.06;98.15;38938.63;10362773;28;20026;-69
2023/09/11 06:34:48;;;;;;;0.00;0.00;;;;;;;-145.06;94.33;38823.63;10381136;28;20029;-68
2023/09/11 06:39:50;;;;;;;0.00;0.00;;;;;;;-145.06;88.88;38652.13;10369680;28;20022;-69
2023/09/11 06:44:51;;;;;;;0.00;0.00;;;;;;;-145.06;87.93;38516.97;10384954;28;20026;-71
2023/09/11 06:49:52;;;;;;;0.00;0.00;;;;;;;-145.06;84.44;38387.88;10377420;28;20026;-68
2023/09/11 06:54:53;;;;;;;0.00;0.00;;;;;;;-145.06;82.63;38212.38;10392816;28;20422;-71
2023/09/11 06:59:53;;;;;;;0.10;0.10;;;;;;;-145.06;80.73;38274.91;10383405;28;20026;-69
2023/09/11 07:04:53;;;;;;;0.00;0.00;;;;;;;-145.06;80.51;38131.69;10394450;28;20020;-70
2023/09/11 07:09:54;;;;;;;0.00;0.00;;;;;;;-145.06;75.96;37923.94;10386320;28;20018;-69
2023/09/11 07:14:55;;;;;;;0.10;0.10;;;;;;;-145.06;73.25;37744.44;10382143;28;20071;-68
2023/09/11 07:19:55;;;;;;;0.10;0.10;;;;;;;-145.06;71.61;37637.53;10388934;28;20034;-70
2023/09/11 07:24:56;;;;;;;0.10;0.10;;;;;;;-145.06;69.64;37568.97;10355161;28;20702;-66
2023/09/11 07:29:56;;;;;;;0.10;0.10;;;;;;;-145.06;68.21;37577.03;10374655;28;20022;-67
2023/09/11 07:34:57;;;;;;;0.10;0.10;;;;;;;-145.06;69.28;37689.97;10372939;28;20028;-67
2023/09/11 07:39:57;;;;;;;0.00;0.00;;;;;;;-145.06;71.14;37625.44;10347913;28;20452;-67
2023/09/11 07:44:58;;;;;;;0.00;0.00;;;;;;;-145.06;67.21;37506.44;10386802;28;20025;-67
2023/09/11 07:49:58;;;;;;;0.07;0.07;;;;;;;-145.06;66.19;37341.09;10377257;28;20022;-67
2023/09/11 07:54:58;;;;;;;0.10;0.10;;;;;;;-145.06;63.21;37268.47;10392070;28;20028;-67
2023/09/11 08:00:04;;;;;;;0.10;0.10;;;;;;;-145.06;60.98;37407.63;10385350;28;20022;-65
2023/09/11 08:05:04;;;;;;;0.10;0.10;;;;;;;-145.06;64.73;37696.03;10388513;28;20021;-68
2023/09/11 08:10:05;;;;;;;0.00;0.00;;;;;;;-145.06;67.17;37692.00;10380400;28;20018;-65
2023/09/11 08:15:06;;;;;;;0.10;0.10;;;;;;;-145.06;66.27;37845.28;10369201;28;20382;-66
2023/09/11 08:20:07;;;;;;;0.10;0.10;;;;;;;-145.06;67.30;37714.19;10387920;28;20028;-67
2023/09/11 08:25:12;;;;;;;0.00;0.00;;;;;;;-145.06;68.92;37631.50;10378701;28;20550;-66
2023/09/11 08:30:13;;;;;;;0.10;0.10;;;;;;;-145.06;68.18;37550.81;10379858;28;20053;-67
2023/09/11 08:35:13;;;;;;;0.00;0.00;;;;;;;-145.06;67.21;37498.38;10387685;28;20484;-66
2023/09/11 08:40:14;;;;;;;0.10;0.10;;;;;;;-145.06;64.63;37534.69;10381943;28;20418;-65
2023/09/11 08:45:14;;;;;;;0.10;0.10;;;;;;;-145.06;69.23;37506.44;10381553;28;20029;-67
2023/09/11 08:50:16;;;;;;;0.10;0.10;;;;;;;-145.06;66.60;37462.09;10372865;28;20018;-66
2023/09/11 08:55:19;;;;;;;0.00;0.00;;;;;;;-145.06;68.98;37337.03;10382619;28;20360;-67
2023/09/11 09:00:20;;;;;;;0.10;0.10;;;;;;;-145.06;67.80;37490.31;10396191;28;20080;-67
2023/09/11 09:05:20;;;;;;;0.10;0.10;;;;;;;-145.06;72.19;37470.16;10371862;28;20080;-67
2023/09/11 09:10:22;;;;;;;0.10;0.10;;;;;;;-145.06;70.28;37413.69;10384218;28;20025;-67
2023/09/11 09:15:23;;;;;;;0.10;0.10;;;;;;;-145.06;66.38;37316.88;10386564;28;20034;-68
2023/09/11 09:20:24;;;;;;;0.10;0.10;;;;;;;-145.06;67.26;37500.41;10404140;28;20087;-67
2023/09/11 09:25:26;;;;;;;0.10;0.10;;;;;;;-145.06;70.28;37357.22;10380549;28;20022;-66
2023/09/11 09:30:30;;;;;;;;;;;;;;;-145.06;68.93;37169.66;10385775;28;20014;-65
2023/09/11 09:35:32;;;;;;;0.00;0.00;;;;;;;-145.06;64.38;37117.22;10354193;28;19968;-65
2023/09/11 09:40:34;;;;;;;;;;;;;;;-145.06;69.25;37155.56;10385543;28;20033;-67
2023/09/11 09:45:38;;;;;;;0.10;0.10;;;;;;;-145.06;68.40;37230.16;10370110;28;19952;-65
2023/09/11 09:51:00;;;;;;;0.00;0.00;;;;;;;-145.06;71.41;37101.09;10385833;28;20009;-66
2023/09/11 09:56:05;;;;;;;0.10;0.10;;;;;;;-145.06;68.13;37175.72;10388858;28;20026;-66
2023/09/11 10:01:07;;;;;;;0.00;0.00;;;;;;;-145.06;69.73;37087.00;10380966;28;20430;-69
2023/09/11 10:06:19;;;;;;;0.00;0.00;;;;;;;-145.06;67.90;36966.00;10385548;28;20101;-67
2023/09/11 10:11:27;;;;;;;0.10;0.10;;;;;;;-145.06;67.18;37119.25;10374788;28;20029;-66
2023/09/11 10:16:28;;;;;;;0.10;0.10;;;;;;;-145.06;68.49;37169.66;10378725;28;20505;-66
2023/09/11 10:21:29;;;;;;;0.00;0.00;;;;;;;-145.06;70.22;37187.81;10382988;28;20025;-66
2023/09/11 10:26:54;;;;;;;0.00;0.00;;;;;;;-145.06;70.96;37002.28;10382417;28;20030;-65
2023/09/11 10:32:04;;;;;;;0.00;0.00;;;;;;;-145.06;69.00;36945.84;10378985;28;20028;-67
2023/09/11 10:37:05;;;;;;;0.10;0.10;;;;;;;-145.06;69.67;36828.88;10380071;28;20018;-66
2023/09/11 10:42:05;;;;;;;0.00;0.00;;;;;;;-145.06;68.39;36830.91;10387072;28;20022;-65
2023/09/11 10:47:06;;;;;;;0.00;0.00;;;;;;;-145.06;68.21;36845.00;10374720;28;20017;-66
2023/09/11 10:52:08;;;;;;;0.10;0.10;;;;;;;-145.06;67.26;36909.53;10385260;28;20018;-66
2023/09/11 10:57:08;;;;;;;0.00;0.00;;;;;;;-145.06;69.02;36917.59;10369963;28;20757;-66
2023/09/11 11:02:09;;;;;;;0.00;0.00;;;;;;;-145.06;68.77;36897.44;10376894;28;20036;-65
2023/09/11 11:07:09;;;;;;;0.10;0.10;;;;;;;-145.06;68.96;36776.44;10393664;28;20037;-66
2023/09/11 11:12:13;;;;;;;0.00;0.00;;;;;;;-145.06;69.32;36734.09;10371878;28;20018;-64
2023/09/11 11:17:16;;;;;;;0.00;0.00;;;;;;;-145.06;68.67;36836.94;10386205;28;20033;-65
2023/09/11 11:22:31;;;;;;;0.00;0.00;;;;;;;-145.06;65.84;36881.31;10382737;28;20022;-66
2023/09/11 11:27:31;;;;;;;0.00;0.00;;;;;;;-145.06;67.42;36822.81;10380753;28;20076;-65
2023/09/11 11:32:36;;;;;;;0.10;0.10;;;;;;;-145.06;65.57;36859.13;10381976;28;20048;-66
2023/09/11 11:37:38;;;;;;;0.00;0.00;;;;;;;-145.06;64.17;36861.13;10381219;28;20265;-67
2023/09/11 11:42:40;;;;;;;0.10;0.10;;;;;;;-145.06;60.29;36875.25;10386604;28;20026;-66
2023/09/11 11:47:41;;;;;;;0.00;0.00;;;;;;;-145.06;60.34;36978.09;10388496;28;20087;-67
2023/09/11 11:52:45;;;;;;;0.08;0.08;;;;;;;-145.06;62.84;36893.41;10391200;28;20033;-67
2023/09/11 11:57:50;;;;;;;0.03;0.03;;;;;;;-145.06;64.61;36784.50;10384556;28;20156;-67
2023/09/11 12:02:50;;;;;;;0.00;0.00;;;;;;;-145.06;64.94;36776.44;10390705;28;20079;-66
2023/09/11 12:07:50;;;;;;;0.10;0.10;;;;;;;-145.06;63.56;36762.34;10380208;28;20079;-67
2023/09/11 12:12:51;;;;;;;0.00;0.00;;;;;;;-145.06;65.31;36695.78;10364852;28;20022;-65
2023/09/11 12:17:51;;;;;;;0.00;0.00;;;;;;;-145.06;63.41;36675.63;10378457;28;20260;-67
2023/09/11 12:22:51;;;;;;;0.00;0.00;;;;;;;-145.06;64.26;36619.19;10370196;28;20538;-65
2023/09/11 12:27:52;;;;;;;0.00;0.00;;;;;;;-145.06;60.78;36623.22;10396224;28;20026;-66
2023/09/11 12:32:52;;;;;;;0.00;0.00;;;;;;;-145.06;63.69;36641.34;10373784;28;20022;-67
2023/09/11 12:37:53;;;;;;;0.00;0.00;;;;;;;-145.06;63.91;36639.34;10382929;28;20025;-67
2023/09/11 12:42:54;;;;;;;0.10;0.10;;;;;;;-145.06;62.60;36615.16;10393736;28;20489;-67
2023/09/11 12:47:54;;;;;;;0.10;0.10;;;;;;;-145.06;57.62;36675.63;10372357;28;20269;-66
2023/09/11 12:53:02;;;;;;;0.10;0.10;;;;;;;-145.06;61.45;36691.75;10400029;28;20529;-66
2023/09/11 12:58:03;;;;;;;0.10;0.10;;;;;;;-145.06;59.34;36693.78;10384981;28;20104;-66
2023/09/11 13:03:05;;;;;;;0.00;0.00;;;;;;;-145.06;57.04;36788.56;10394169;28;20431;-66
2023/09/11 13:08:08;;;;;;;0.10;0.10;;;;;;;-145.06;61.79;36784.50;10386350;28;20025;-66
2023/09/11 13:13:08;;;;;;;0.10;0.10;;;;;;;-145.06;59.18;36784.50;10406085;28;20021;-66
2023/09/11 13:18:09;;;;;;;0.00;0.00;;;;;;;-145.06;59.38;36800.66;10389480;23;20104;-68
2023/09/11 13:23:09;;;;;;;0.00;0.00;;;;;;;-145.06;62.20;36736.13;10339903;28;20069;-68
2023/09/11 13:28:09;;;;;;;0.00;0.00;;;;;;;-145.06;58.20;36816.78;10337431;28;20032;-68
2023/09/11 13:33:09;;;;;;;0.00;0.00;;;;;;;-145.06;58.02;36845.00;10333259;28;20300;-68
2023/09/11 13:38:10;;;;;;;0.10;0.10;;;;;;;-145.06;58.73;36834.94;10334994;28;20037;-68
2023/09/11 13:43:10;;;;;;;0.00;0.00;;;;;;;-145.06;60.28;36772.41;10335032;28;20030;-66
2023/09/11 13:48:10;;;;;;;0.00;0.00;;;;;;;-145.06;60.88;36859.13;10331411;28;20788;-66
2023/09/11 13:53:10;;;;;;;0.03;0.03;;;;;;;-145.06;62.58;36861.13;10331255;28;20483;-66
2023/09/11 13:58:11;;;;;;;0.00;0.00;;;;;;;-145.06;61.06;36851.06;10332135;28;20023;-66
2023/09/11 14:03:11;;;;;;;0.10;0.10;;;;;;;-145.06;60.34;36853.06;10329113;28;20022;-67
2023/09/11 14:08:12;;;;;;;0.00;0.00;;;;;;;-145.06;61.19;36911.56;10338680;28;20084;-67
2023/09/11 14:13:12;;;;;;;0.00;0.00;;;;;;;-145.06;61.29;36913.56;10334406;28;20269;-66
2023/09/11 14:18:12;;;;;;;0.10;0.10;;;;;;;-145.06;58.86;36945.84;10332765;28;20024;-67
2023/09/11 14:23:13;;;;;;;0.10;0.10;;;;;;;-145.06;60.69;36961.97;10317735;28;20026;-66
2023/09/11 14:28:13;;;;;;;0.00;0.00;;;;;;;-145.06;59.78;36966.00;10330210;28;20421;-66
2023/09/11 14:33:13;;;;;;;0.10;0.10;;;;;;;-145.06;58.79;36968.00;10327190;28;20019;-67
2023/09/11 14:38:13;;;;;;;0.00;0.00;;;;;;;-145.06;59.87;37010.34;10330460;28;20262;-67
2023/09/11 14:43:14;;;;;;;0.00;0.00;;;;;;;-145.06;58.04;37022.47;10334716;28;20483;-68
2023/09/11 14:48:14;;;;;;;0.00;0.00;;;;;;;-145.06;59.85;36978.09;10330412;28;20437;-68
2023/09/11 14:53:15;;;;;;;0.00;0.00;;;;;;;-145.06;58.31;37010.34;10333430;28;20129;-68
2023/09/11 14:58:16;;;;;;;0.10;0.10;;;;;;;-145.06;59.08;37058.75;10329023;28;20057;-67
2023/09/11 15:03:16;;;;;;;0.10;0.10;;;;;;;-145.06;60.93;37089.00;10331744;28;20294;-67
2023/09/11 15:08:16;;;;;;;0.00;0.00;;;;;;;-145.06;63.17;37115.22;10334928;28;20022;-68
2023/09/11 15:13:16;;;;;;;0.00;0.00;;;;;;;-145.06;61.77;37131.34;10328074;28;20121;-68
2023/09/11 15:18:17;;;;;;;0.10;0.10;;;;;;;-145.06;57.27;37135.38;10327674;28;20026;-68
2023/09/11 15:23:17;;;;;;;0.03;0.03;;;;;;;-145.06;59.27;37187.81;10325350;28;20022;-68
2023/09/11 15:28:17;;;;;;;0.00;0.00;;;;;;;-145.06;61.45;37173.69;10328253;28;20379;-68
2023/09/11 15:33:19;;;;;;;0.00;0.00;;;;;;;-145.06;65.20;37234.19;10334449;28;20382;-66
2023/09/11 15:38:20;;;;;;;0.00;0.00;;;;;;;-145.06;65.19;37270.50;10339757;28;20537;-67
2023/09/11 15:43:20;;;;;;;0.10;0.10;;;;;;;-145.06;67.21;37278.56;10326092;28;20088;-68
2023/09/11 15:48:20;;;;;;;0.10;0.10;;;;;;;-145.06;69.66;37375.38;10326381;28;20023;-68
2023/09/11 15:53:20;;;;;;;0.00;0.00;;;;;;;-145.06;70.37;37379.41;10335389;28;20046;-68
2023/09/11 15:58:23;;;;;;;0.00;0.00;;;;;;;-145.06;70.17;37361.25;10331484;28;20105;-68
2023/09/11 16:03:25;;;;;;;0.00;0.00;;;;;;;-145.06;73.12;37397.53;10329614;28;20117;-68
2023/09/11 16:08:25;;;;;;;0.00;0.00;;;;;;;-145.06;73.47;37460.06;10328604;28;20034;-68
2023/09/11 16:13:25;;;;;;;0.00;0.00;;;;;;;-145.06;72.80;37496.38;10336238;28;20034;-68
2023/09/11 16:18:26;;;;;;;0.10;0.10;;;;;;;-145.06;74.48;37516.53;10338539;28;20063;-68
2023/09/11 16:23:26;;;;;;;0.00;0.00;;;;;;;-145.06;74.95;37575.03;10329072;28;20573;-68
2023/09/11 16:28:26;;;;;;;0.00;0.00;;;;;;;-145.06;75.75;37597.22;10315638;28;20025;-68
2023/09/11 16:33:27;;;;;;;0.00;0.00;;;;;;;-145.06;80.13;37635.53;10330398;28;20475;-68
2023/09/11 16:38:27;;;;;;;0.10;0.10;;;;;;;-145.06;82.29;37687.97;10328160;28;20557;-68
2023/09/11 16:43:27;;;;;;;0.00;0.00;;;;;;;-145.06;80.96;37685.94;10331713;28;20026;-68
2023/09/11 16:48:27;;;;;;;0.08;0.08;;;;;;;-145.06;81.54;37732.34;10325277;28;20022;-69
2023/09/11 16:53:28;;;;;;;0.00;0.00;;;;;;;-145.06;82.21;37712.16;10328954;28;20018;-69
2023/09/11 16:58:28;;;;;;;0.00;0.00;;;;;;;-145.06;82.87;37811.00;10327293;28;20022;-68
2023/09/11 17:03:28;;;;;;;0.00;0.00;;;;;;;-145.06;84.20;37825.13;10338726;28;20026;-69
2023/09/11 17:08:29;;;;;;;0.00;0.00;;;;;;;-145.06;84.58;37853.34;10332499;28;20445;-69
2023/09/11 17:13:29;;;;;;;0.10;0.10;;;;;;;-145.06;85.93;37911.84;10328285;28;21102;-68
2023/09/11 17:18:29;;;;;;;0.10;0.10;;;;;;;-145.06;88.62;37990.50;10329174;28;20455;-69
2023/09/11 17:23:30;;;;;;;0.00;0.00;;;;;;;-145.06;90.53;38051.00;10326118;28;20045;-68
2023/09/11 17:28:31;;;;;;;0.00;0.00;;;;;;;-145.06;92.48;38115.56;10327160;28;20038;-69
2023/09/11 17:33:31;;;;;;;0.00;0.00;;;;;;;-145.06;94.90;38196.25;10331217;28;20081;-68
2023/09/11 17:38:31;;;;;;;0.10;0.10;;;;;;;-145.06;96.49;38200.28;10334393;28;20026;-69
2023/09/11 17:43:31;;;;;;;0.00;0.00;;;;;;;-145.06;96.69;38285.00;10339623;28;20394;-68
2023/09/11 17:48:32;;;;;;;0.00;0.00;;;;;;;-145.06;97.15;38325.34;10343426;28;20387;-68
2023/09/11 17:53:32;;;;;;;0.00;0.00;;;;;;;-145.06;98.93;38345.50;10335726;28;20486;-69
2023/09/11 17:58:32;;;;;;;0.10;0.10;;;;;;;-145.06;100.00;38387.88;10331114;28;20022;-69
2023/09/11 18:03:33;;;;;;;0.00;0.00;;;;;;;-145.06;100.00;38424.19;10339725;28;20105;-69
2023/09/11 18:08:33;;;;;;;0.00;0.00;;;;;;;-145.06;100.00;38462.50;10339358;28;20022;-69
2023/09/11 18:13:33;;;;;;;0.00;0.00;;;;;;;-145.06;100.00;38508.91;10330695;28;20487;-69
2023/09/11 18:18:33;;;;;;;0.00;0.00;;;;;;;-145.06;100.00;38474.63;10351945;28;20026;-68
2023/09/11 18:23:34;;;;;;;0.00;0.00;;;;;;;-145.06;100.00;38458.47;10354127;28;20026;-68
2023/09/11 18:28:36;;;;;;;0.00;0.00;;;;;;;-145.06;100.00;38523.03;10337203;28;20097;-69
2023/09/11 18:33:36;;;;;;;0.00;0.00;;;;;;;-145.06;100.00;38583.56;10354160;28;20033;-69
2023/09/11 18:38:36;;;;;;;0.10;0.10;;;;;;;-145.06;100.00;38599.69;10358993;28;20483;-68
2023/09/11 18:43:37;;;;;;;0.00;0.00;;;;;;;-145.06;100.00;38621.88;10335373;28;20041;-68
2023/09/11 18:48:39;;;;;;;0.00;0.00;;;;;;;-145.06;100.00;38684.41;10328317;28;20475;-68
2023/09/11 18:53:40;;;;;;;;;;;;;;;-145.06;100.00;38672.31;10332758;28;20018;-67
2023/09/11 18:58:40;;;;;;;0.00;0.00;;;;;;;-145.06;100.00;38732.84;10336933;28;19909;-68
2023/09/11 19:03:40;;;;;;;0.10;0.10;;;;;;;-145.06;100.00;38730.81;10334407;28;20475;-68
2023/09/11 19:08:40;;;;;;;0.00;0.00;;;;;;;-145.06;100.00;38775.19;10333728;28;20110;-68
2023/09/11 19:13:41;;;;;;;0.00;0.00;;;;;;;-145.06;100.00;38751.00;10351013;28;20471;-68
2023/09/11 19:18:41;;;;;;;0.00;0.00;;;;;;;-145.06;100.00;38799.41;10340583;23;20051;-62
2023/09/11 19:23:41;;;;;;;0.00;0.00;;;;;;;-145.06;100.00;38803.44;10299268;28;20057;-62
2023/09/11 19:28:42;;;;;;;0.00;0.00;;;;;;;-145.06;100.00;38815.53;10293314;28;20022;-62
2023/09/11 19:33:42;;;;;;;0.00;0.00;;;;;;;-145.06;100.00;38876.06;10294575;28;20062;-62
2023/09/11 19:38:43;;;;;;;0.00;0.00;;;;;;;-145.06;100.00;38878.09;10296581;28;20448;-62
2023/09/11 19:43:46;;;;;;;0.00;0.00;;;;;;;-145.06;100.00;38922.47;10309112;28;20065;-62
2023/09/11 19:48:46;;;;;;;0.10;0.10;;;;;;;-145.06;100.00;38918.44;10312627;28;20022;-62
2023/09/11 19:53:47;;;;;;;0.00;0.00;;;;;;;-145.06;100.00;38946.69;10312503;28;20042;-62
2023/09/11 19:58:47;;;;;;;0.00;0.00;;;;;;;-145.06;100.00;38978.97;10308552;28;20488;-62
2023/09/11 20:03:48;;;;;;;0.00;0.00;;;;;;;-145.06;100.00;38985.00;10310995;28;20483;-62
2023/09/11 20:08:48;;;;;;;0.00;0.00;;;;;;;-145.06;100.00;38993.09;10311242;28;20045;-62
2023/09/11 20:13:48;;;;;;;0.00;0.00;;;;;;;-145.06;100.00;39001.16;10309765;28;20450;-62
2023/09/11 20:18:48;;;;;;;0.00;0.00;;;;;;;-145.06;100.00;39031.41;10307063;28;20039;-62
2023/09/11 20:23:50;;;;;;;0.00;0.00;;;;;;;-145.06;100.00;39055.63;10309438;28;20027;-62
2023/09/11 20:28:51;;;;;;;0.00;0.00;;;;;;;-145.06;100.00;39055.63;10309511;28;20022;-62
2023/09/11 20:33:51;;;;;;;0.00;0.00;;;;;;;-145.06;100.00;39085.91;10305830;28;20046;-61
2023/09/11 20:38:51;;;;;;;0.10;0.10;;;;;;;-145.06;100.00;39126.25;10316846;28;20031;-61
2023/09/11 20:43:52;;;;;;;0.00;0.00;;;;;;;-145.06;100.00;39095.97;10314739;28;20050;-62
2023/09/11 20:48:52;;;;;;;0.00;0.00;;;;;;;-145.06;100.00;39152.47;10316926;28;20034;-62
2023/09/11 20:53:52;;;;;;;0.00;0.00;;;;;;;-145.06;100.00;39140.38;10308387;28;20022;-62
2023/09/11 20:58:53;;;;;;;0.00;0.00;;;;;;;-145.06;100.00;39136.34;10304785;28;20019;-63
2023/09/11 21:03:53;;;;;;;0.00;0.00;;;;;;;-145.06;100.00;39176.69;10323574;28;20069;-63
2023/09/11 21:08:54;;;;;;;0.00;0.00;;;;;;;-145.06;100.00;39184.75;10332629;28;20134;-62
2023/09/11 21:13:54;;;;;;;0.10;0.10;;;;;;;-145.06;100.00;39200.91;10332521;28;20026;-62
2023/09/11 21:18:55;;;;;;;0.00;0.00;;;;;;;-145.06;100.00;39164.56;10331211;28;20081;-62
2023/09/11 21:24:04;;;;;;;0.10;0.10;;;;;;;-145.06;100.00;39245.28;10331452;28;20121;-62
2023/09/11 21:29:06;;;;;;;0.05;0.05;;;;;;;-145.06;100.00;39245.28;10332981;28;20378;-62
2023/09/11 21:34:06;;;;;;;0.00;0.00;;;;;;;-145.06;100.00;39259.41;10329705;28;20045;-62
2023/09/11 21:39:06;;;;;;;0.10;0.10;;;;;;;-145.06;100.00;39267.47;10313067;28;20411;-62
2023/09/11 21:44:07;;;;;;;0.10;0.10;;;;;;;-145.06;100.00;39332.03;10314411;28;20109;-62
2023/09/11 21:49:07;;;;;;;0.00;0.00;;;;;;;-145.06;100.00;39309.84;10313609;28;20025;-61
2023/09/11 21:54:08;;;;;;;0.10;0.10;;;;;;;-145.06;100.00;39297.75;10311129;28;20018;-62
2023/09/11 21:59:08;;;;;;;0.00;0.00;;;;;;;-145.06;100.00;39321.97;10313352;28;20494;-63
2023/09/11 22:04:09;;;;;;;0.00;0.00;;;;;;;-145.06;100.00;39309.84;10296985;28;20065;-62
2023/09/11 22:09:09;;;;;;;0.10;0.10;;;;;;;-145.06;100.00;39305.81;10290404;28;20021;-62
2023/09/11 22:14:09;;;;;;;0.10;0.10;;;;;;;-145.06;100.00;39317.91;10300861;28;20018;-62
2023/09/11 22:19:09;;;;;;;0.00;0.00;;;;;;;-145.06;100.00;39356.25;10329067;28;20399;-62
2023/09/11 22:24:11;;;;;;;0.00;0.00;;;;;;;-145.06;100.00;39342.13;10305195;28;20030;-62
2023/09/11 22:29:11;;;;;;;0.00;0.00;;;;;;;-145.06;100.00;39348.19;10290942;28;20018;-62
2023/09/11 22:34:11;;;;;;;0.00;0.00;;;;;;;-145.06;100.00;39348.19;10291421;28;20049;-62
2023/09/11 22:39:12;;;;;;;0.00;0.00;;;;;;;-145.06;100.00;39372.41;10290680;28;20399;-62
2023/09/11 22:44:12;;;;;;;0.00;0.00;;;;;;;-145.06;100.00;39346.16;10292483;28;20435;-62